Main page
METAR-TAF:

METAR-TAF

Airports :

Isles of Scilly, England

St Mary's Airport

latitude: 49-55N, longitude: 006-18W, elevation: 31 m

Current weather observation

The report was made 30 minutes ago, at 17:20 UTC
Wind 6 kt from the West/Southwest
Temperature 12°C
Humidity 62%
Pressure 1019 hPa
Visibility 10 km or more
Few clouds at a height of 2600 ft

METAR: EGHE 281720Z 24006KT 9999 FEW026 12/05 Q1019

Time: 18:50 (17:50 UTC)

Forecast

The report was made 3 hours and 56 minutes ago, at 13:54 UTC
Forecast valid from 28 at 15 UTC to 28 at 18 UTC
Wind 10 kt from the West/Northwest
Visibility 10 km or more
Scattered clouds at a height of 3000 ft
Becoming
from 28 at 15 UTC to 28 at 18 UTC
Wind 5 kt from the Southwest

TAF: EGHE 281354Z 2815/2818 30010KT 9999 SCT030 BECMG 2815/2818 23005KT

Weather observations and forecasts of more than 4000 airports (METAR and TAF reports).

The available stations are represented by yellow and red dots on the map.

Hover mouse over dot to see the name of the station.

Then click to see weather observations and forecasts.

To change the map : click on the green buttons with a black cross to zoom in, on the green button with a dash to zoom out, or on the green arrows for adjacent maps.


METAR-TAF: